Flight Track Log - Related Links

Times and Time Zones

All times are in EDT time to prevent confusion due to time zone crossing. See the CFH26 flight status page for this flight to view local times or setup timezone preferences in your user account.

Time Position Orientation Groundspeed Altitude Reporting Facility
EDT Latitude Longitude Course Direction KTS MPH feet Rate Location/Type
Fri 08:03:26 AM -12.2650 136.8164 208° Southwest  Level Aus ATC (Calculated)
Fri 08:04:51 AM -12.3906 136.7482 208° Southwest  Level Aus ATC (Calculated)
Fri 08:06:00 AM -12.4471 136.7173 208° Southwest  Level Estimated
Fri 08:06:50 AM -12.5161 136.6799 360° North  Level Aus ATC (Calculated)
Fri 08:07:02 AM -12.5161 136.6799 360° North  Level Aus ATC (Calculated)
Fri 08:07:51 AM -12.5161 136.6799 208° Southwest  Level Aus ATC (Calculated)
Fri 08:09:00 AM -12.5727 136.6491 208° Southwest  Level FlightAware Approximate
Fri 08:10:00 AM -12.6219 136.6223 208° Southwest  Level FlightAware Approximate
Fri 08:10:51 AM -12.7044 136.5773 28° Northeast  Level Aus ATC (Calculated)
Fri 08:11:00 AM -12.6711 136.5955 208° Southwest  Level FlightAware Approximate
Fri 08:11:56 AM -12.7671 136.5431 28° Northeast  Level Aus ATC (Calculated)
Fri 08:12:00 AM -12.7610 136.5465 208° Southwest  Level FlightAware Approximate
Fri 08:13:00 AM -12.8196 136.5145 208° Southwest  Level FlightAware Approximate
Fri 08:14:00 AM -12.8688 136.4877 208° Southwest  Level FlightAware Approximate
Fri 08:14:23 AM -12.8926 136.4747 208° Southwest  Level Aus ATC (Calculated)
Fri 08:14:54 AM -12.9554 136.4404 208° Southwest  Level Aus ATC (Calculated)
Fri 08:16:00 AM -13.0095 136.4108 208° Southwest  Level FlightAware Approximate
Fri 08:17:00 AM -13.0586 136.3839 208° Southwest  Level FlightAware Approximate
Fri 08:17:35 AM -13.0808 136.3718 208° Southwest  Level Aus ATC (Calculated)
Fri 08:18:00 AM -13.1078 136.3570 208° Southwest  Level FlightAware Approximate
Fri 08:19:00 AM -13.1505 136.3337 208° Southwest  Level FlightAware Approximate
Fri 08:20:00 AM -13.1997 136.3068 208° Southwest  Level FlightAware Approximate
Fri 08:20:35 AM -13.2690 136.2688 208° Southwest  Level Aus ATC (Calculated)
Fri 08:22:00 AM -13.3386 136.2306 208° Southwest  Level FlightAware Approximate
Fri 08:22:25 AM -13.3944 136.2000 360° North  Level Aus ATC (Calculated)
Fri 08:23:04 AM -13.3944 136.2000 208° Southwest  Level Aus ATC (Calculated)
Fri 08:23:59 AM -13.4571 136.1656 208° Southwest  Level Aus ATC (Calculated)
Fri 08:25:00 AM -13.5071 136.1382 208° Southwest  Level FlightAware Approximate
Fri 08:26:00 AM -13.5562 136.1112 208° Southwest  Level FlightAware Approximate
Fri 08:26:04 AM -13.5825 136.0968 208° Southwest  Level Aus ATC (Calculated)
Fri 08:27:09 AM -13.6452 136.0623 208° Southwest  Level Aus ATC (Calculated)
Fri 08:29:00 AM -13.7361 136.0123 208° Southwest  Level FlightAware Approximate
Fri 08:30:00 AM -13.7852 135.9852 208° Southwest  Level FlightAware Approximate
Fri 08:31:00 AM -13.8343 135.9582 208° Southwest  Level FlightAware Approximate
Fri 08:32:00 AM -13.8835 135.9311 208° Southwest  Level FlightAware Approximate
Fri 08:33:00 AM -13.9326 135.9040 208° Southwest  Level FlightAware Approximate
Fri 08:34:00 AM -13.9817 135.8769 208° Southwest  Level FlightAware Approximate
Fri 08:35:00 AM -14.0308 135.8498 208° Southwest  Level FlightAware Approximate
Fri 08:36:00 AM -14.0799 135.8227 208° Southwest  Level FlightAware Approximate
Fri 08:37:00 AM -14.1290 135.7956 208° Southwest  Level FlightAware Approximate
Fri 08:38:00 AM -14.1782 135.7684 208° Southwest  Level FlightAware Approximate
Fri 08:39:00 AM -14.2273 135.7413 208° Southwest  Level FlightAware Approximate
Fri 08:40:00 AM -14.2764 135.7141 208° Southwest  Level FlightAware Approximate
Fri 08:41:00 AM -14.2695 135.7147 28° Northeast  Level Estimated
Fri 08:42:00 AM -14.2695 135.7147 138° Southeast  Level Estimated
Fri 08:43:00 AM -14.2695 135.7147 138° Southeast  Level Estimated
Fri 08:44:00 AM -14.2695 135.7147 138° Southeast  Level Estimated
Fri 08:45:00 AM -14.2695 135.7147 138° Southeast  Level Estimated
Fri 08:46:00 AM -14.2695 135.7147 138° Southeast  Level Estimated
Fri 08:47:00 AM -14.2695 135.7147 138° Southeast  Level Estimated
Fri 08:48:00 AM -14.2695 135.7147 138° Southeast  Level Estimated
Fri 08:49:00 AM -14.2695 135.7147 138° Southeast  Level Estimated
Fri 08:50:00 AM -14.2695 135.7147 138° Southeast  Level Estimated
Fri 08:51:00 AM -14.2695 135.7147 138° Southeast  Level Estimated
Fri 08:52:00 AM -14.2717 135.7167 208° Southwest  Level FlightAware Approximate
Fri 08:53:00 AM -14.2695 135.7147 208° Southwest  Level Estimated
Fri 08:54:00 AM -14.2717 135.7167 208° Southwest  Level FlightAware Approximate
Fri 08:55:00 AM -14.2695 135.7147 208° Southwest  Level Estimated
Fri 08:56:00 AM -14.2717 135.7167 208° Southwest  Level FlightAware Approximate
Fri 08:57:00 AM -14.2695 135.7147 208° Southwest  Level Estimated
Fri 08:58:00 AM -14.2717 135.7167 208° Southwest  Level FlightAware Approximate
Fri 08:59:00 AM -14.2695 135.7147 208° Southwest  Level Estimated
Fri 09:00:00 AM -14.2717 135.7167 208° Southwest  Level FlightAware Approximate

Login

Don't have an account? Register now (free) for customized features, flight alerts, and more!